Tuesday, July 25, 2017, 2:41 AM EDT

KESN, Easton / Newman Field

Location: Easton, MD, United States Lat: 38.8
Local Time: 2:41 AM EDT ( 6:41 GMT) Lon: -76.067
Time Zone: US/Eastern Elev: 72 ft

Show me the last for .
Show Decoded

2017-07-25 02:18 METAR KESN 250618Z AUTO 03005KT 10SM SCT080 24/21 A2997 RMK AO2 T02370212 =
2017-07-25 01:58 METAR KESN 250558Z AUTO 02007KT 10SM SCT065 SCT090 24/21 A2997 RMK AO2 60060
                 T02400211 10298 20237 403140237 =
2017-07-25 01:38 METAR KESN 250538Z AUTO 01005KT 10SM OVC065 24/21 A2996 RMK AO2 T02410213 =
2017-07-25 01:18 METAR KESN 250518Z AUTO 02006KT 10SM OVC065 24/22 A2995 RMK AO2 T02390216 =
2017-07-25 00:58 METAR KESN 250458Z AUTO 35005KT 10SM OVC065 24/22 A2994 RMK AO2 P0043 T02400220
                 =
2017-07-25 00:38 METAR KESN 250438Z AUTO 03006KT 10SM -RA SCT007 BKN029 BKN065 24/22 A2993 RMK
                 AO2 P0043 T02400221 =
2017-07-25 00:18 METAR KESN 250418Z AUTO 04006G19KT 2SM +RA OVC006 24/22 A2993 RMK AO2 P0038
                 T02400221 =
2017-07-24 23:58 METAR KESN 250358Z AUTO 03016G21KT 5SM +RA SCT019 BKN065 OVC110 26/23 A2991 RMK
                 AO2 P0013 T02590226 =
2017-07-24 23:38 METAR KESN 250338Z AUTO 04005KT 10SM SCT020 BKN065 OVC090 27/22 A2990 RMK AO2
                 T02650222 =
2017-07-24 23:18 METAR KESN 250318Z AUTO 24004KT 10SM SCT065 BKN080 BKN090 28/23 A2990 RMK AO2
                 T02780233 =
2017-07-24 22:58 METAR KESN 250258Z AUTO 21007KT 10SM CLR 28/23 A2988 RMK AO2 T02760227 =
2017-07-24 22:38 METAR KESN 250238Z AUTO 21007KT 10SM CLR 28/22 A2988 RMK AO2 T02760222 =
2017-07-24 21:50 METAR KESN 250150Z 19004KT 10SM SCT150 27/22 A2988 RMK OCNL LTG DSNT N =
2017-07-24 20:50 METAR KESN 250050Z 18004KT 10SM SCT150 28/22 A2986 =
2017-07-24 19:50 METAR KESN 242350Z 20005KT 10SM SCT150 30/22 A2985 =
2017-07-24 18:50 METAR KESN 242250Z 22006KT 10SM SCT120 BKN250 30/22 A2986 =
2017-07-24 17:50 METAR KESN 242150Z 23008KT 10SM FEW100 BKN250 31/22 A2986 =
2017-07-24 16:50 METAR KESN 242050Z 23005KT 10SM SCT150 31/20 A2986 =
2017-07-24 15:50 METAR KESN 241950Z 27005KT 10SM SCT038 30/21 A2986 =
2017-07-24 14:50 METAR KESN 241850Z 29005KT 10SM SCT027 31/20 A2986 =
2017-07-24 13:50 METAR KESN 241750Z 27006KT 10SM SCT027 30/20 A2986 =
2017-07-24 12:47 METAR KESN 241647Z 32008KT 10SM SCT027 29/22 A2986 =
2017-07-24 11:45 METAR KESN 241545Z 29006KT 10SM SCT022 29/22 A2986 =
2017-07-24 10:50 METAR KESN 241450Z 32006G11KT 10SM SCT021 BKN130 28/22 A2985 =
2017-07-24 09:50 METAR KESN 241350Z 31009KT 10SM SCT021 BKN033 27/23 A2984 =
2017-07-24 08:45 METAR KESN 241245Z 25003KT 10SM SCT017 SCT023 BKN029 25/23 A2983 =
2017-07-24 07:45 METAR KESN 241145Z 24005KT 10SM SCT045 BKN085 26/23 A2981 =
2017-07-24 06:50 METAR KESN 241050Z 27003KT 10SM SCT055 BKN090 26/22 A2980 =
2017-07-24 05:45 METAR KESN 240945Z 00000KT 10SM BKN090 25/22 A2977 =
2017-07-24 05:33 METAR KESN 240933Z AUTO 00000KT 10SM SCT095 26/22 A2977 RMK AO2 T02600217 =
2017-07-24 05:18 METAR KESN 240918Z AUTO 30004KT 10SM CLR 26/22 A2976 RMK AO2 T02610218 =
2017-07-24 04:58 METAR KESN 240858Z AUTO 31006KT 10SM SCT120 26/22 A2975 RMK AO2 60002 T02600218
                 =
2017-07-24 04:38 METAR KESN 240838Z AUTO 31006KT 10SM SCT120 26/22 A2974 RMK AO2 T02630220 =
2017-07-24 04:18 METAR KESN 240818Z AUTO 30005KT 10SM CLR 27/22 A2975 RMK AO2 T02650221 =
2017-07-24 03:58 METAR KESN 240758Z AUTO 28006KT 10SM CLR 26/23 A2975 RMK AO2 T02620225 =
2017-07-24 03:38 METAR KESN 240738Z AUTO 28007KT 250V310 10SM CLR 26/23 A2975 RMK AO2 T02600230 =
2017-07-24 03:18 METAR KESN 240718Z AUTO 28004KT 10SM CLR 25/23 A2976 RMK AO2 T02450228 =
2017-07-24 02:58 METAR KESN 240658Z AUTO 00000KT 10SM CLR 24/22 A2977 RMK AO2 P0002 T02390222 =

Support USWX by starting your Amazon purchase here.